Hlavní strana
METAR-TAF:

METAR-TAF

Letiště :

Demopolis, Alabama, Spojené státy americké

zeměpisná šířka: 32-27-50N, zeměpisná délka: 087-57-15W, výška: 34 m

Aktuální stav počasí

Zpráva byla vytvořena před 14 minutami, v 23:15 UTC
Bezvětří
Teplota 11°C
Vlhkost vzduchu 76%
Tlak 1017 hPa
Viditelnost: 16.1 km
Zataženo ve výšce 3400 ft

METAR: KDYA 262315Z AUTO 00000KT 10SM OVC034 11/07 A3003 RMK AO2 T01070065

Čas: 17:29 (23:29 UTC)


TAF: chybějící

Stav a předpovědi počasí z více než 4 000 letišť (zprávy METAR a TAF).

Červené a žluté tečky na mapě představují dostupné meteorologické stanice.

Když kurzor umístíte na tečku, zobrazí se název stanice.

Pak kliknutím zobrazíte stav a předpověď počasí.

Chcete-li změnit mapu, kliknutím na zelené tlačítko se znaménkem +mapu přiblížíte, kliknutím na zelené tlačítko se znaménkem – mapu oddálíte a kliknutím na zelené šipky přejdete na sousední mapy.


METAR-TAF: